Time;durP1;ratioP1;P1;durP2;ratioP2;P2;SDS_P1;SDS_P2;PMS_P1;PMS_P2;Temp;Humidity;BMP_temperature;BMP_pressure;BME280_temperature;BME280_humidity;BME280_pressure;Samples;Min_cycle;Max_cycle;Signal;HPM_P1;HPM_P2
2023/09/10 00:02:19;;;;;;;34.50;2.40;;;;;;;23.91;61.22;99615.00;7310193;19;129168;-42
2023/09/10 00:04:44;;;;;;;35.93;2.53;;;;;;;23.88;61.44;99602.16;7309630;19;128590;-38
2023/09/10 00:07:10;;;;;;;53.17;3.27;;;;;;;23.91;60.75;99609.75;7309464;19;130393;-38
2023/09/10 00:09:35;;;;;;;86.07;5.10;;;;;;;23.91;60.80;99609.75;7306160;19;129483;-43
2023/09/10 00:12:00;;;;;;;33.33;2.33;;;;;;;23.90;61.16;99602.84;7309742;19;128943;-39
2023/09/10 00:14:26;;;;;;;40.57;2.63;;;;;;;23.92;61.28;99606.16;7307860;19;129282;-43
2023/09/10 00:16:51;;;;;;;58.67;3.50;;;;;;;23.92;61.22;99611.41;7309133;19;129763;-42
2023/09/10 00:19:17;;;;;;;21.23;1.67;;;;;;;23.90;60.98;99602.84;7308984;19;130343;-38
2023/09/10 00:21:42;;;;;;;52.13;3.50;;;;;;;23.92;61.70;99600.06;7309926;19;129504;-36
2023/09/10 00:24:10;;;;;;;35.33;2.40;;;;;;;23.93;61.11;99599.91;7316144;19;129150;-41
2023/09/10 00:26:36;;;;;;;76.57;4.50;;;;;;;23.91;60.92;99594.00;7313429;19;133638;-39
2023/09/10 00:29:02;;;;;;;33.23;2.33;;;;;;;23.90;60.65;99589.72;7316166;19;129965;-40
2023/09/10 00:31:27;;;;;;;18.47;1.50;;;;;;;23.91;60.88;99596.63;7316745;19;129793;-39
2023/09/10 00:33:53;;;;;;;35.47;2.57;;;;;;;23.92;60.70;99592.19;7315513;19;128931;-38
2023/09/10 00:36:18;;;;;;;90.53;4.90;;;;;;;23.92;61.41;99594.81;7315311;19;130186;-41
2023/09/10 00:38:43;;;;;;;52.33;3.27;;;;;;;23.93;61.47;99591.22;7314729;19;129286;-40
2023/09/10 00:41:09;;;;;;;26.67;2.00;;;;;;;23.94;61.17;99593.69;7313965;19;129605;-37
2023/09/10 00:43:35;;;;;;;41.03;2.67;;;;;;;23.93;60.80;99597.28;7315295;19;129228;-43
2023/09/10 00:46:02;;;;;;;82.97;4.68;;;;;;;23.93;61.33;99591.22;7315488;19;129495;-40
2023/09/10 00:48:27;;;;;;;27.50;1.95;;;;;;;23.91;60.74;99598.44;7314508;19;129337;-41
2023/09/10 00:50:53;;;;;;;41.77;2.77;;;;;;;23.92;61.33;99598.28;7311912;19;129854;-40
2023/09/10 00:53:21;;;;;;;53.63;3.37;;;;;;;23.80;61.38;99575.88;7314306;19;128843;-37
2023/09/10 00:55:47;;;;;;;111.50;6.30;;;;;;;23.90;60.95;99589.72;7313970;19;130098;-42
2023/09/10 00:58:13;;;;;;;19.33;2.05;;;;;;;23.92;60.88;99594.81;7315187;19;129483;-40
2023/09/10 01:00:42;;;;;;;34.33;2.57;;;;;;;23.93;61.66;99597.28;7312377;19;129205;-38
2023/09/10 01:03:08;;;;;;;33.03;2.33;;;;;;;23.91;60.90;99599.25;7315264;19;129228;-39
2023/09/10 01:05:35;;;;;;;94.27;5.00;;;;;;;23.91;61.21;99599.25;7315098;19;129101;-41
2023/09/10 01:08:03;;;;;;;49.13;3.25;;;;;;;23.91;61.30;99598.44;7312333;19;131090;-45
2023/09/10 01:10:41;;;;;;;28.13;2.13;;;;;;;23.92;61.33;99600.06;7313691;19;129794;-40
2023/09/10 01:13:22;;;;;;;46.38;3.08;;;;;;;23.93;61.59;99606.97;7314785;19;129028;-36
2023/09/10 01:15:56;;;;;;;48.70;3.10;;;;;;;23.91;61.90;99609.75;7312165;19;131438;-38
2023/09/10 01:18:46;;;;;;;62.80;3.70;;;;;;;23.81;61.96;99576.69;7314476;19;129335;-37
2023/09/10 01:21:49;;;;;;;68.38;3.92;;;;;;;23.82;61.83;99584.41;7313052;19;130021;-37
2023/09/10 01:24:27;;;;;;;16.60;1.63;;;;;;;23.93;61.93;99606.97;7313273;19;130372;-40
2023/09/10 01:26:59;;;;;;;29.17;2.20;;;;;;;23.80;61.74;99586.38;7313407;19;129419;-40
2023/09/10 01:29:24;;;;;;;57.10;3.45;;;;;;;23.91;61.25;99604.50;7312679;19;129437;-39
2023/09/10 01:31:59;;;;;;;67.77;4.13;;;;;;;23.92;62.30;99607.94;7314653;19;129331;-40
2023/09/10 01:34:27;;;;;;;27.30;2.13;;;;;;;23.90;61.55;99597.59;7311963;19;129456;-40
2023/09/10 01:36:59;;;;;;;56.10;3.60;;;;;;;23.91;61.61;99599.25;7312097;19;129146;-39
2023/09/10 01:39:36;;;;;;;32.80;2.42;;;;;;;23.90;61.80;99608.09;7312294;19;129773;-36
2023/09/10 01:42:04;;;;;;;70.50;4.07;;;;;;;23.91;61.44;99599.25;7313416;19;129522;-42
2023/09/10 01:44:31;;;;;;;55.15;3.42;;;;;;;23.80;60.94;99586.38;7314925;19;128852;-41
2023/09/10 01:46:57;;;;;;;23.35;1.88;;;;;;;23.90;61.17;99600.22;7314239;19;131630;-38
2023/09/10 01:49:24;;;;;;;24.00;1.98;;;;;;;23.92;61.23;99600.06;7312289;19;130007;-40
2023/09/10 01:51:49;;;;;;;76.93;4.57;;;;;;;23.91;60.90;99599.25;7313001;19;129295;-39
2023/09/10 01:54:15;;;;;;;61.03;3.70;;;;;;;23.83;60.76;99587.88;7313550;19;129187;-39
2023/09/10 01:56:40;;;;;;;48.97;3.00;;;;;;;23.92;61.51;99600.91;7314399;19;129758;-40
2023/09/10 01:59:05;;;;;;;33.67;2.30;;;;;;;23.80;61.40;99575.06;7312612;19;129279;-38
2023/09/10 02:01:31;;;;;;;79.00;4.23;;;;;;;23.92;61.12;99597.44;7311885;19;129829;-40
2023/09/10 02:03:56;;;;;;;52.57;3.27;;;;;;;23.91;60.79;99596.63;7314684;19;129191;-43
2023/09/10 02:06:21;;;;;;;44.60;2.97;;;;;;;23.91;61.27;99601.88;7313878;19;129396;-42
2023/09/10 02:08:47;;;;;;;22.63;1.83;;;;;;;23.92;61.48;99600.91;7311777;19;129442;-38
2023/09/10 02:11:12;;;;;;;71.33;3.87;;;;;;;23.92;60.81;99603.53;7312270;19;129515;-41
2023/09/10 02:13:37;;;;;;;51.63;3.37;;;;;;;23.93;61.03;99607.78;7316037;19;129055;-42
2023/09/10 02:16:03;;;;;;;35.63;2.63;;;;;;;23.93;61.43;99602.53;7311657;19;129118;-36
2023/09/10 02:18:29;;;;;;;60.27;3.63;;;;;;;23.79;61.01;99574.22;7312608;19;129408;-38
2023/09/10 02:20:55;;;;;;;60.80;3.50;;;;;;;23.90;61.31;99596.78;7311690;19;129420;-40
2023/09/10 02:23:21;;;;;;;11.53;1.53;;;;;;;23.91;61.13;99599.25;7313579;19;129050;-37
2023/09/10 02:25:46;;;;;;;70.77;4.60;;;;;;;23.93;61.51;99605.16;7308307;19;129259;-40
2023/09/10 02:28:12;;;;;;;73.20;4.43;;;;;;;23.91;61.69;99599.25;7309927;19;129611;-38
2023/09/10 02:30:37;;;;;;;53.20;3.07;;;;;;;23.91;61.06;99601.88;7310082;19;129094;-42
2023/09/10 02:33:03;;;;;;;37.90;2.57;;;;;;;23.91;60.83;99599.25;7313181;19;129467;-41
2023/09/10 02:35:28;;;;;;;28.20;2.07;;;;;;;23.93;61.46;99604.34;7312729;19;129023;-39
2023/09/10 02:37:53;;;;;;;50.30;3.37;;;;;;;23.91;61.04;99596.63;7312835;19;130184;-39
2023/09/10 02:40:19;;;;;;;59.40;3.53;;;;;;;23.91;61.74;99594.00;7310197;19;129375;-40
2023/09/10 02:42:44;;;;;;;41.50;2.50;;;;;;;23.93;60.84;99601.72;7308949;19;129594;-41
2023/09/10 02:45:11;;;;;;;53.47;3.40;;;;;;;23.93;61.54;99597.28;7309082;19;129371;-40
2023/09/10 02:47:36;;;;;;;78.78;4.68;;;;;;;23.93;61.34;99602.53;7311908;19;129325;-36
2023/09/10 02:50:02;;;;;;;33.80;2.33;;;;;;;23.93;61.59;99596.47;7311555;19;130538;-39
2023/09/10 02:52:30;;;;;;;27.53;1.77;;;;;;;23.94;60.97;99609.44;7312675;19;129493;-37
2023/09/10 02:54:56;;;;;;;55.30;3.55;;;;;;;23.93;61.61;99607.78;7311503;19;131125;-42
2023/09/10 02:57:21;;;;;;;106.27;6.10;;;;;;;23.93;61.53;99607.78;7309908;19;129115;-37
2023/09/10 02:59:46;;;;;;;36.90;2.47;;;;;;;23.91;61.41;99609.75;7310077;19;129299;-42
2023/09/10 03:02:12;;;;;;;36.77;2.67;;;;;;;23.93;60.89;99613.03;7311046;19;129442;-42
2023/09/10 03:04:37;;;;;;;36.97;2.50;;;;;;;23.93;61.12;99605.16;7311173;19;129285;-41
2023/09/10 03:07:03;;;;;;;83.33;4.60;;;;;;;23.94;61.05;99608.63;7311314;19;129250;-44
2023/09/10 03:09:28;;;;;;;31.33;2.23;;;;;;;23.94;61.45;99608.63;7310175;19;129387;-37
2023/09/10 03:12:27;;;;;;;40.67;2.63;;;;;;;23.94;61.66;99604.19;7310497;19;129573;-38
2023/09/10 03:14:52;;;;;;;35.38;2.33;;;;;;;23.91;61.50;99596.63;7311936;19;129278;-41
2023/09/10 03:17:18;;;;;;;37.40;2.50;;;;;;;23.93;61.36;99597.28;7311990;19;130944;-40
2023/09/10 03:19:44;;;;;;;83.60;4.77;;;;;;;23.92;61.00;99600.06;7309229;19;129514;-40
2023/09/10 03:22:10;;;;;;;35.30;2.37;;;;;;;23.93;61.04;99596.47;7311743;19;130881;-44
2023/09/10 03:24:36;;;;;;;37.25;2.58;;;;;;;23.93;61.46;99594.66;7310549;19;129039;-42
2023/09/10 03:27:02;;;;;;;27.15;2.25;;;;;;;23.92;60.87;99597.44;7310381;19;129787;-38
2023/09/10 03:29:28;;;;;;;82.23;4.67;;;;;;;23.93;60.82;99602.53;7309324;19;129383;-41
2023/09/10 03:31:53;;;;;;;44.93;2.93;;;;;;;23.82;61.05;99573.06;7311845;19;128814;-43
2023/09/10 03:34:19;;;;;;;31.37;2.17;;;;;;;23.93;61.15;99597.28;7310481;19;129118;-36
2023/09/10 03:36:44;;;;;;;34.13;2.40;;;;;;;23.93;60.93;99601.72;7310266;19;130212;-42
2023/09/10 03:39:10;;;;;;;72.03;4.07;;;;;;;23.92;61.28;99600.06;7308425;19;129663;-38
2023/09/10 03:41:35;;;;;;;58.23;3.63;;;;;;;23.91;61.52;99599.25;7309444;19;129537;-38
2023/09/10 03:44:00;;;;;;;35.10;2.47;;;;;;;23.93;61.23;99596.47;7310541;19;129628;-42
2023/09/10 03:46:26;;;;;;;42.13;2.97;;;;;;;23.93;61.51;99602.53;7309947;19;130221;-40
2023/09/10 03:48:51;;;;;;;84.77;4.73;;;;;;;23.91;61.56;99596.63;7307954;19;129191;-43
2023/09/10 03:51:17;;;;;;;59.10;3.57;;;;;;;23.93;60.84;99606.97;7310823;19;130177;-41
2023/09/10 03:53:42;;;;;;;33.77;2.40;;;;;;;23.91;61.42;99604.50;7309571;19;131882;-38
2023/09/10 03:56:07;;;;;;;37.40;2.37;;;;;;;23.83;61.40;99596.56;7310036;19;130236;-40
2023/09/10 03:58:33;;;;;;;63.57;3.77;;;;;;;23.94;61.01;99613.88;7316280;19;129276;-42
2023/09/10 04:00:58;;;;;;;41.13;2.73;;;;;;;23.92;61.39;99606.16;7315063;19;128963;-41
2023/09/10 04:03:25;;;;;;;60.23;3.63;;;;;;;23.93;61.26;99606.97;7315780;19;130670;-40
2023/09/10 04:05:52;;;;;;;65.55;3.78;;;;;;;23.91;60.87;99604.50;7316306;19;129537;-36
2023/09/10 04:08:17;;;;;;;62.38;3.92;;;;;;;23.93;61.25;99609.59;7317437;19;128985;-39
2023/09/10 04:10:42;;;;;;;59.53;3.90;;;;;;;23.93;60.88;99606.97;7315094;19;129568;-42
2023/09/10 04:13:08;;;;;;;30.30;2.13;;;;;;;23.93;61.93;99610.41;7316981;19;129356;-39
2023/09/10 04:15:33;;;;;;;68.33;3.97;;;;;;;23.92;61.68;99606.16;7315802;19;129497;-36
2023/09/10 04:17:58;;;;;;;63.23;3.73;;;;;;;23.93;61.50;99607.78;7317799;19;130258;-44
2023/09/10 04:20:24;;;;;;;45.53;3.03;;;;;;;23.91;61.20;99609.75;7313368;19;129205;-40
2023/09/10 04:22:49;;;;;;;58.27;3.53;;;;;;;23.92;61.21;99611.41;7316311;19;130064;-41
2023/09/10 04:25:15;;;;;;;77.67;4.30;;;;;;;23.92;60.87;99611.41;7315485;19;130600;-42
2023/09/10 04:27:40;;;;;;;31.13;2.17;;;;;;;23.92;61.61;99607.94;7317315;19;129231;-41
2023/09/10 04:30:06;;;;;;;29.37;1.97;;;;;;;23.92;61.48;99616.66;7313887;19;129819;-39
2023/09/10 04:32:31;;;;;;;70.80;4.53;;;;;;;23.92;61.27;99623.69;7315732;19;131212;-37
2023/09/10 04:34:57;;;;;;;88.03;5.10;;;;;;;23.92;61.06;99616.66;7316385;19;129656;-42
2023/09/10 04:37:22;;;;;;;5.67;0.97;;;;;;;23.93;60.93;99622.72;7317529;19;131192;-42
2023/09/10 04:39:47;;;;;;;52.43;3.43;;;;;;;23.92;61.28;99621.06;7312257;19;128898;-44
2023/09/10 04:42:13;;;;;;;62.47;3.70;;;;;;;23.93;61.17;99618.28;7312840;19;129547;-36
2023/09/10 04:44:38;;;;;;;78.13;4.40;;;;;;;23.91;60.67;99617.63;7315801;19;130321;-41
2023/09/10 04:47:03;;;;;;;40.13;2.80;;;;;;;23.93;61.23;99625.38;7313975;19;128924;-40
2023/09/10 04:49:29;;;;;;;35.80;2.27;;;;;;;23.93;61.10;99623.53;7313388;19;129329;-39
2023/09/10 04:51:54;;;;;;;71.30;4.23;;;;;;;23.93;61.14;99631.41;7314562;19;130884;-39
2023/09/10 04:54:19;;;;;;;60.63;3.77;;;;;;;23.93;61.02;99634.03;7315152;19;129662;-44
2023/09/10 04:56:47;;;;;;;51.53;3.23;;;;;;;23.91;60.94;99636.03;7315073;19;129079;-41
2023/09/10 04:59:13;;;;;;;32.85;2.13;;;;;;;23.92;61.30;99634.19;7313500;19;131617;-38
2023/09/10 05:01:38;;;;;;;58.27;3.33;;;;;;;23.92;61.52;99634.19;7311339;19;129369;-41
2023/09/10 05:04:04;;;;;;;57.50;3.60;;;;;;;23.81;60.81;99619.53;7315211;19;129277;-38
2023/09/10 05:06:29;;;;;;;50.33;2.83;;;;;;;23.92;60.98;99642.91;7314707;19;128984;-40
2023/09/10 05:08:54;;;;;;;77.70;4.73;;;;;;;23.94;61.20;99637.50;7312178;19;131959;-39
2023/09/10 05:11:20;;;;;;;55.23;3.23;;;;;;;23.93;61.55;99639.28;7314445;19;130173;-38
2023/09/10 05:13:45;;;;;;;65.87;4.30;;;;;;;23.81;61.14;99618.69;7313686;19;131348;-41
2023/09/10 05:16:10;;;;;;;38.60;2.50;;;;;;;23.90;60.70;99644.84;7313567;19;129746;-40
2023/09/10 05:18:36;;;;;;;27.73;2.13;;;;;;;23.82;61.00;99629.03;7313267;19;129138;-39
2023/09/10 05:21:01;;;;;;;57.97;3.50;;;;;;;23.91;61.34;99641.28;7310875;19;129467;-37
2023/09/10 05:23:26;;;;;;;50.50;3.30;;;;;;;23.93;61.37;99641.13;7314654;19;129110;-40
2023/09/10 05:25:52;;;;;;;54.40;3.57;;;;;;;23.92;61.24;99644.69;7313392;19;129326;-41
2023/09/10 05:28:17;;;;;;;27.80;2.20;;;;;;;23.93;61.36;99644.53;7312429;19;130160;-39
2023/09/10 05:30:43;;;;;;;53.90;3.13;;;;;;;23.90;61.56;99644.84;7311228;19;129676;-42
2023/09/10 05:33:08;;;;;;;52.03;3.40;;;;;;;23.92;61.45;99648.16;7313074;19;129337;-42
2023/09/10 05:35:33;;;;;;;33.73;2.57;;;;;;;23.91;61.17;99641.28;7313697;19;128862;-38
2023/09/10 05:37:59;;;;;;;89.10;5.10;;;;;;;23.93;61.36;99647.16;7312024;19;128953;-39
2023/09/10 05:40:25;;;;;;;47.23;2.80;;;;;;;23.90;61.48;99655.38;7312290;19;130259;-41
2023/09/10 05:42:50;;;;;;;31.47;2.07;;;;;;;23.87;61.13;99644.34;7312544;19;129234;-42
2023/09/10 05:45:16;;;;;;;83.07;5.00;;;;;;;23.91;61.01;99659.66;7312370;19;128868;-40
2023/09/10 05:47:41;;;;;;;60.70;3.33;;;;;;;23.93;61.68;99664.75;7311608;19;129000;-42
2023/09/10 05:50:07;;;;;;;24.17;1.87;;;;;;;23.92;61.58;99663.09;7311364;19;129054;-38
2023/09/10 05:52:32;;;;;;;34.50;2.20;;;;;;;23.81;61.34;99645.78;7313774;19;130113;-38
2023/09/10 05:54:58;;;;;;;37.57;2.57;;;;;;;23.92;61.66;99665.72;7313154;19;129458;-39
2023/09/10 05:57:23;;;;;;;50.10;3.13;;;;;;;23.91;60.65;99664.91;7313128;19;128748;-40
2023/09/10 05:59:49;;;;;;;54.17;2.93;;;;;;;23.91;61.05;99662.28;7311236;19;130243;-43
2023/09/10 06:02:15;;;;;;;38.80;2.73;;;;;;;23.91;61.09;99657.03;7308713;19;130814;-44
2023/09/10 06:04:40;;;;;;;38.40;2.53;;;;;;;23.93;61.59;99670.81;7313548;19;128934;-40
2023/09/10 06:07:05;;;;;;;91.93;5.07;;;;;;;23.92;61.06;99658.66;7313147;19;129586;-39
2023/09/10 06:09:31;;;;;;;40.57;2.63;;;;;;;23.80;61.50;99638.88;7312433;19;129641;-42
2023/09/10 06:11:59;;;;;;;54.87;3.60;;;;;;;23.91;61.06;99667.53;7313049;19;129715;-41
2023/09/10 06:14:24;;;;;;;36.33;2.28;;;;;;;23.91;61.48;99670.16;7312317;19;130036;-39
2023/09/10 06:16:50;;;;;;;62.37;3.40;;;;;;;23.83;61.04;99656.13;7312943;19;129032;-39
2023/09/10 06:19:15;;;;;;;26.70;1.87;;;;;;;23.91;61.50;99670.16;7310938;19;129836;-43
2023/09/10 06:21:41;;;;;;;25.17;1.83;;;;;;;23.92;60.98;99673.59;7310153;19;129286;-38
2023/09/10 06:24:06;;;;;;;44.27;2.73;;;;;;;23.91;60.81;99675.41;7313267;19;129536;-40
2023/09/10 06:26:32;;;;;;;110.87;6.37;;;;;;;23.83;61.57;99656.94;7312099;19;129014;-43
2023/09/10 06:28:58;;;;;;;59.37;3.77;;;;;;;23.91;60.91;99664.91;7311685;19;131020;-43
2023/09/10 06:31:23;;;;;;;30.07;2.10;;;;;;;23.91;61.40;99669.31;7312838;19;129370;-40
2023/09/10 06:33:48;;;;;;;64.97;3.73;;;;;;;23.80;61.02;99659.88;7310716;19;130696;-39
2023/09/10 06:36:14;;;;;;;60.07;3.63;;;;;;;23.91;60.88;99679.81;7313017;19;131349;-42
2023/09/10 06:38:41;;;;;;;30.90;2.10;;;;;;;23.82;61.30;99663.19;7312117;19;129157;-41
2023/09/10 06:41:07;;;;;;;33.80;2.30;;;;;;;23.90;61.78;99684.25;7311251;19;130198;-41
2023/09/10 06:43:32;;;;;;;46.83;2.80;;;;;;;23.91;60.97;99680.66;7312888;19;129195;-40
2023/09/10 06:45:58;;;;;;;65.40;3.93;;;;;;;23.93;61.42;99683.94;7312664;19;128875;-43
2023/09/10 06:48:23;;;;;;;11.93;1.17;;;;;;;23.89;61.49;99677.34;7310121;19;130282;-40
2023/09/10 06:50:48;;;;;;;55.07;3.53;;;;;;;23.79;61.73;99655.63;7308872;19;129301;-41
2023/09/10 06:53:14;;;;;;;72.47;4.10;;;;;;;23.90;60.99;99676.38;7310873;19;129497;-41
2023/09/10 06:55:39;;;;;;;18.33;1.57;;;;;;;23.84;61.05;99670.91;7311652;19;129066;-42
2023/09/10 06:58:04;;;;;;;73.20;4.43;;;;;;;23.93;61.29;99681.31;7309031;19;129956;-40
2023/09/10 07:00:30;;;;;;;59.43;3.47;;;;;;;23.91;61.39;99680.66;7309513;19;129388;-39
2023/09/10 07:02:56;;;;;;;70.13;4.00;;;;;;;23.92;61.17;99689.34;7312715;19;129088;-41
2023/09/10 07:05:21;;;;;;;36.53;2.47;;;;;;;23.92;61.34;99684.09;7311608;19;130972;-38
2023/09/10 07:07:53;;;;;;;22.57;1.60;;;;;;;23.91;61.55;99693.78;7311055;19;130875;-37
2023/09/10 07:10:18;;;;;;;42.72;2.75;;;;;;;23.91;61.56;99688.53;7308121;19;129371;-40
2023/09/10 07:12:44;;;;;;;70.07;3.93;;;;;;;23.92;61.55;99689.34;7312067;19;129087;-38
2023/09/10 07:15:09;;;;;;;46.47;3.03;;;;;;;23.91;61.47;99683.28;7312947;19;131145;-39
2023/09/10 07:17:36;;;;;;;51.33;3.43;;;;;;;23.91;61.05;99695.59;7310954;19;129643;-41
2023/09/10 07:20:02;;;;;;;;;;;;;;;23.96;62.38;99688.91;7309167;19;130745;-40
2023/09/10 07:22:27;;;;;;;73.20;4.10;;;;;;;23.83;60.89;99680.56;7308659;19;129088;-39
2023/09/10 07:24:53;;;;;;;26.57;1.83;;;;;;;23.92;61.69;99686.72;7311711;19;129120;-43
2023/09/10 07:27:18;;;;;;;45.80;2.87;;;;;;;23.91;61.89;99691.16;7310664;19;129651;-40
2023/09/10 07:29:43;;;;;;;63.40;3.87;;;;;;;23.91;61.06;99687.72;7307665;19;129374;-37
2023/09/10 07:32:08;;;;;;;67.03;3.90;;;;;;;23.91;61.39;99685.91;7312162;19;129293;-42
2023/09/10 07:34:34;;;;;;;27.63;2.00;;;;;;;23.91;61.75;99693.78;7311825;19;129403;-41
2023/09/10 07:36:59;;;;;;;52.90;3.20;;;;;;;23.91;61.28;99682.44;7310518;19;129349;-38
2023/09/10 07:39:29;;;;;;;59.73;3.27;;;;;;;23.91;61.85;99677.19;7308712;19;129205;-39
2023/09/10 07:41:54;;;;;;;76.32;4.45;;;;;;;23.91;61.08;99683.28;7308467;19;129821;-39
2023/09/10 07:44:19;;;;;;;29.57;2.10;;;;;;;23.91;61.48;99674.56;7310435;19;129626;-37
2023/09/10 07:46:45;;;;;;;30.63;1.97;;;;;;;23.91;61.44;99675.41;7310563;19;129401;-39
2023/09/10 07:49:10;;;;;;;85.43;5.00;;;;;;;23.91;61.17;99671.94;7308420;19;131157;-39
2023/09/10 07:51:35;;;;;;;36.37;2.40;;;;;;;23.91;61.13;99677.19;7310123;19;129034;-41
2023/09/10 07:54:01;;;;;;;40.33;2.83;;;;;;;23.91;61.79;99675.41;7309854;19;129062;-41
2023/09/10 07:56:27;;;;;;;32.23;2.10;;;;;;;23.87;61.83;99671.44;7309669;19;129492;-40
2023/09/10 07:58:52;;;;;;;96.82;5.05;;;;;;;23.91;61.45;99683.28;7308705;19;129325;-41
2023/09/10 08:01:18;;;;;;;46.53;3.00;;;;;;;23.80;61.21;99670.38;7309800;19;128952;-41
2023/09/10 08:03:43;;;;;;;40.90;2.60;;;;;;;23.91;60.88;99688.53;7309703;19;129513;-41
2023/09/10 08:06:09;;;;;;;41.47;2.83;;;;;;;23.91;61.25;99685.91;7308383;19;129151;-39
2023/09/10 08:08:34;;;;;;;70.40;3.87;;;;;;;23.90;60.95;99681.63;7308526;19;129274;-38
2023/09/10 08:10:59;;;;;;;54.10;3.27;;;;;;;23.91;60.80;99682.44;7307831;19;129557;-39
2023/09/10 08:13:25;;;;;;;28.00;1.90;;;;;;;23.91;61.82;99678.03;7309488;19;128785;-41
2023/09/10 08:15:50;;;;;;;27.77;1.93;;;;;;;23.91;61.56;99683.28;7308944;19;128979;-42
2023/09/10 08:18:16;;;;;;;100.30;5.60;;;;;;;23.91;61.45;99683.28;7307232;19;129764;-43
2023/09/10 08:20:42;;;;;;;44.75;2.83;;;;;;;23.91;61.09;99683.28;7307584;19;129077;-42
2023/09/10 08:23:08;;;;;;;37.07;2.53;;;;;;;23.91;61.60;99680.66;7308708;19;129396;-40
2023/09/10 08:25:35;;;;;;;44.22;2.65;;;;;;;23.91;61.17;99678.03;7308876;19;130202;-39
2023/09/10 08:28:01;;;;;;;50.65;3.13;;;;;;;23.89;61.37;99679.97;7308472;19;129316;-40
2023/09/10 08:30:27;;;;;;;30.90;2.22;;;;;;;23.81;61.16;99663.34;7307701;19;129635;-43
2023/09/10 08:32:53;;;;;;;28.27;2.08;;;;;;;23.91;61.83;99682.44;7307110;19;129125;-41
2023/09/10 08:35:19;;;;;;;59.20;3.53;;;;;;;23.91;61.20;99683.28;7308434;19;129547;-40
2023/09/10 08:37:44;;;;;;;69.70;4.18;;;;;;;23.89;61.37;99674.72;7309928;19;130081;-39
2023/09/10 08:40:10;;;;;;;37.13;2.57;;;;;;;23.90;61.24;99684.25;7308260;19;129008;-41
2023/09/10 08:42:53;;;;;;;24.13;1.90;;;;;;;23.91;61.90;99678.03;7307166;19;130129;-39
2023/09/10 08:45:18;;;;;;;65.95;4.10;;;;;;;23.91;61.46;99682.44;7314281;19;130939;-40
2023/09/10 08:47:47;;;;;;;93.70;5.20;;;;;;;23.91;61.32;99677.19;7314621;19;130263;-37
2023/09/10 08:50:14;;;;;;;43.20;2.70;;;;;;;23.91;61.67;99677.19;7315060;19;129103;-43
2023/09/10 08:52:42;;;;;;;35.08;2.33;;;;;;;23.87;61.51;99671.44;7316429;19;130556;-41
2023/09/10 08:55:08;;;;;;;66.13;3.90;;;;;;;23.91;61.88;99678.03;7314372;19;129438;-41
2023/09/10 08:57:37;;;;;;;82.78;4.78;;;;;;;23.89;62.06;99677.34;7313834;19;129572;-41
2023/09/10 09:00:06;;;;;;;63.92;4.03;;;;;;;23.90;61.34;99680.81;7311348;19;129538;-39
2023/09/10 09:02:32;;;;;;;43.80;2.90;;;;;;;23.90;62.00;99675.56;7313089;19;129382;-41
2023/09/10 09:04:57;;;;;;;40.80;2.80;;;;;;;23.90;61.80;99671.13;7314416;19;129500;-40
2023/09/10 09:07:26;;;;;;;54.93;3.13;;;;;;;23.90;62.46;99676.38;7313876;19;129181;-38
2023/09/10 09:09:55;;;;;;;38.92;2.40;;;;;;;23.90;61.82;99676.38;7313120;19;129654;-38
2023/09/10 09:12:21;;;;;;;32.50;2.15;;;;;;;23.89;61.33;99674.72;7316423;19;128985;-41
2023/09/10 09:14:49;;;;;;;44.47;2.80;;;;;;;23.91;62.22;99677.19;7314001;19;129217;-42
2023/09/10 09:17:15;;;;;;;65.70;3.75;;;;;;;23.88;61.56;99667.81;7313616;19;130624;-39
2023/09/10 09:19:44;;;;;;;74.00;4.13;;;;;;;23.91;62.55;99674.56;7313164;19;129352;-41
2023/09/10 09:22:11;;;;;;;58.75;3.30;;;;;;;23.89;62.16;99677.34;7313197;19;129118;-38
2023/09/10 09:24:37;;;;;;;29.83;2.15;;;;;;;23.90;61.19;99672.94;7314131;19;130517;-40
2023/09/10 09:27:03;;;;;;;30.10;2.07;;;;;;;23.90;61.55;99675.56;7313968;19;129349;-41
2023/09/10 09:29:30;;;;;;;59.57;3.43;;;;;;;23.90;61.47;99680.81;7312522;19;129543;-41
2023/09/10 09:31:55;;;;;;;31.45;2.20;;;;;;;23.83;60.90;99670.06;7315273;19;129116;-42
2023/09/10 09:34:20;;;;;;;28.73;1.93;;;;;;;23.90;61.54;99676.38;7314425;19;129477;-39
2023/09/10 09:36:51;;;;;;;48.83;2.97;;;;;;;23.91;61.91;99674.56;7313445;19;131490;-38
2023/09/10 09:39:18;;;;;;;71.93;3.97;;;;;;;23.89;61.72;99674.72;7314096;19;130314;-38
2023/09/10 09:41:54;;;;;;;33.55;2.05;;;;;;;23.90;62.03;99660.63;7314650;19;130024;-42
2023/09/10 09:44:20;;;;;;;21.23;1.77;;;;;;;23.88;61.75;99673.06;7313056;19;129830;-37
2023/09/10 09:46:47;;;;;;;40.30;2.60;;;;;;;23.89;61.40;99668.66;7313104;19;129392;-39
2023/09/10 09:49:12;;;;;;;87.03;4.60;;;;;;;23.89;61.87;99663.41;7312784;19;129006;-43
2023/09/10 09:51:42;;;;;;;71.13;4.27;;;;;;;23.90;62.05;99657.19;7313423;19;128992;-45
2023/09/10 09:54:07;;;;;;;38.28;2.45;;;;;;;23.88;61.19;99652.06;7312202;19;129274;-36
2023/09/10 09:56:33;;;;;;;60.57;3.83;;;;;;;23.80;61.83;99644.13;7312409;19;131156;-41
2023/09/10 09:58:58;;;;;;;88.37;4.93;;;;;;;23.89;61.15;99660.78;7309132;19;129413;-41
2023/09/10 10:01:24;;;;;;;41.30;2.60;;;;;;;23.79;61.10;99642.50;7314095;19;129798;-40
2023/09/10 10:03:50;;;;;;;25.37;1.87;;;;;;;23.89;61.72;99656.34;7314157;19;129041;-40
2023/09/10 10:06:18;;;;;;;151.20;8.47;;;;;;;23.88;61.58;99652.06;7309374;19;129260;-42
2023/09/10 10:08:50;;;;;;;100.63;5.43;;;;;;;23.89;62.06;99656.34;7308392;19;130836;-39
2023/09/10 10:11:30;;;;;;;33.55;2.35;;;;;;;23.89;62.18;99653.72;7310442;19;129535;-39
2023/09/10 10:13:59;;;;;;;33.67;2.22;;;;;;;23.87;61.79;99650.41;7313747;19;130124;-40
2023/09/10 10:16:26;;;;;;;35.10;2.33;;;;;;;23.86;61.38;99648.78;7310713;19;130431;-38
2023/09/10 10:18:53;;;;;;;29.35;2.10;;;;;;;23.86;61.46;99643.53;7311874;19;129024;-40
2023/09/10 10:21:19;;;;;;;75.45;4.40;;;;;;;23.86;61.46;99638.28;7311425;19;128918;-41
2023/09/10 10:23:45;;;;;;;42.65;2.72;;;;;;;23.85;61.36;99636.63;7312518;19;130120;-41
2023/09/10 10:26:11;;;;;;;47.73;2.90;;;;;;;23.85;61.63;99646.31;7311817;19;130202;-41
2023/09/10 10:28:37;;;;;;;29.40;2.03;;;;;;;23.85;60.72;99641.88;7310711;19;131074;-39
2023/09/10 10:31:10;;;;;;;87.17;4.87;;;;;;;23.86;60.97;99648.78;7309192;19;130471;-41
2023/09/10 10:33:41;;;;;;;49.85;2.95;;;;;;;23.84;61.20;99637.59;7312783;19;129390;-43
2023/09/10 10:36:13;;;;;;;31.00;2.05;;;;;;;23.88;61.23;99636.31;7311862;19;130294;-42
2023/09/10 10:38:43;;;;;;;49.75;2.90;;;;;;;23.87;61.36;99633.84;7311234;19;130348;-42
2023/09/10 10:41:23;;;;;;;28.55;1.95;;;;;;;23.88;62.29;99633.69;7310137;19;130663;-39
2023/09/10 10:44:29;;;;;;;43.17;2.70;;;;;;;23.90;62.68;99630.94;7310966;19;129405;-41
2023/09/10 10:47:02;;;;;;;32.08;2.20;;;;;;;23.89;62.03;99631.88;7306724;19;132059;-40
2023/09/10 10:49:29;;;;;;;42.08;2.67;;;;;;;23.86;60.95;99625.16;7308819;19;129331;-40
2023/09/10 10:51:58;;;;;;;;;;;;;;;23.93;62.05;99623.53;7313456;19;129422;-42
2023/09/10 10:54:24;;;;;;;71.55;4.35;;;;;;;23.90;61.16;99623.84;7311043;19;129165;-43
2023/09/10 10:56:51;;;;;;;33.15;2.28;;;;;;;23.88;60.66;99617.91;7311619;19;129927;-40
2023/09/10 10:59:17;;;;;;;37.15;2.35;;;;;;;23.89;60.85;99622.22;7309254;19;129548;-39
2023/09/10 11:02:21;;;;;;;50.88;2.97;;;;;;;23.89;62.51;99629.25;7310995;19;129082;-38
2023/09/10 11:05:03;;;;;;;38.83;2.40;;;;;;;23.89;62.05;99616.97;7310520;19;129273;-38
2023/09/10 11:07:30;;;;;;;72.97;4.32;;;;;;;23.78;61.05;99598.00;7309388;19;129498;-39
2023/09/10 11:09:57;;;;;;;;;;;;;;;23.91;61.82;99615.00;7309428;19;129511;-41
2023/09/10 11:12:24;;;;;;;23.50;1.65;;;;;;;23.89;60.46;99614.34;7311870;19;128856;-40
2023/09/10 11:14:58;;;;;;;;;;;;;;;23.95;62.11;99615.50;7311120;19;129184;-42
2023/09/10 11:17:25;;;;;;;55.58;3.28;;;;;;;23.90;60.59;99615.16;7309679;19;129754;-40